createdAt,value
2022-11-02T00:06:12.006Z,42.79
2022-11-02T00:26:17.767Z,67.08
2022-11-02T00:46:23.956Z,45.60
2022-11-02T01:06:29.739Z,34.62
2022-11-02T01:26:35.496Z,36.84
2022-11-02T01:46:41.308Z,38.58
2022-11-02T02:06:47.475Z,45.50
2022-11-02T02:26:53.193Z,49.53
2022-11-02T02:46:59.417Z,22.70
2022-11-02T03:07:05.584Z,18.06
2022-11-02T03:27:11.386Z,18.12
2022-11-02T03:47:17.588Z,20.37
2022-11-02T04:07:23.317Z,14.45
2022-11-02T04:27:29.079Z,19.20
2022-11-02T04:47:34.820Z,15.15
2022-11-02T05:07:40.598Z,13.69
2022-11-02T05:27:46.301Z,13.44
2022-11-02T05:47:52.065Z,13.57
2022-11-02T06:07:57.959Z,13.43
2022-11-02T06:28:04.258Z,13.12
2022-11-02T06:48:09.956Z,16.88
2022-11-02T07:08:16.122Z,20.69
2022-11-02T07:28:22.437Z,20.87
2022-11-02T07:48:28.366Z,15.01
2022-11-02T08:08:34.507Z,18.55
2022-11-02T08:28:40.293Z,15.05
2022-11-02T08:48:45.946Z,14.00
2022-11-02T09:08:53.839Z,11.64
2022-11-02T09:28:56.986Z,10.04
2022-11-02T09:49:02.767Z,6.26
2022-11-02T10:09:08.915Z,7.14
2022-11-02T10:29:14.683Z,5.75
2022-11-02T10:49:20.561Z,5.76
2022-11-02T11:09:26.377Z,5.52
2022-11-02T11:29:33.172Z,2.80
2022-11-02T11:50:07.318Z,2.63
2022-11-02T12:09:44.705Z,3.71
2022-11-02T12:29:50.438Z,2.99
2022-11-02T12:49:56.200Z,3.39
2022-11-02T13:10:02.402Z,3.25
2022-11-02T13:30:08.154Z,3.18
2022-11-02T13:50:13.922Z,3.11
2022-11-02T14:10:20.128Z,2.22
2022-11-02T14:30:26.344Z,2.79
2022-11-02T14:50:32.211Z,3.94
2022-11-02T15:10:37.925Z,3.03
2022-11-02T15:30:43.669Z,3.53
2022-11-02T15:50:49.777Z,4.65
2022-11-02T16:10:56.004Z,2.76
2022-11-02T16:31:01.774Z,3.14
2022-11-02T16:51:13.438Z,5.26
2022-11-02T17:11:12.734Z,3.28
2022-11-02T17:31:18.560Z,5.15
2022-11-02T17:51:24.292Z,5.05
2022-11-02T18:11:30.109Z,5.30
2022-11-02T18:31:36.408Z,5.64
2022-11-02T18:51:42.139Z,5.62
2022-11-02T19:11:54.264Z,4.31
2022-11-02T19:31:49.992Z,4.29
2022-11-02T19:51:55.773Z,5.42
2022-11-02T20:12:01.586Z,4.30
2022-11-02T20:32:07.311Z,4.03
2022-11-02T20:52:13.072Z,9.38
2022-11-02T21:12:18.806Z,15.94
2022-11-02T21:32:25.000Z,47.49
2022-11-02T21:52:30.752Z,84.73
2022-11-02T22:12:36.484Z,76.56
2022-11-02T22:32:42.221Z,27.25
2022-11-02T22:52:48.432Z,58.22
2022-11-02T23:12:54.268Z,33.46
2022-11-02T23:33:00.034Z,69.63
2022-11-02T23:53:06.585Z,31.96
